createdAt,value
2023-05-23T00:01:58.976Z,0.90
2023-05-23T00:04:28.525Z,1.33
2023-05-23T00:06:58.031Z,1.17
2023-05-23T00:09:27.470Z,0.90
2023-05-23T00:11:56.836Z,1.20
2023-05-23T00:14:26.795Z,1.40
2023-05-23T00:16:59.774Z,1.30
2023-05-23T00:19:29.272Z,1.13
2023-05-23T00:22:01.407Z,1.42
2023-05-23T00:24:30.814Z,1.15
2023-05-23T00:27:00.153Z,0.90
2023-05-23T00:29:29.564Z,1.35
2023-05-23T00:32:01.489Z,1.27
2023-05-23T00:34:30.889Z,1.25
2023-05-23T00:37:00.239Z,1.30
2023-05-23T00:39:29.613Z,1.27
2023-05-23T00:41:59.102Z,1.05
2023-05-23T00:44:28.481Z,1.50
2023-05-23T00:47:02.162Z,1.33
2023-05-23T00:49:31.926Z,1.10
2023-05-23T00:52:01.712Z,1.10
2023-05-23T00:54:32.529Z,1.00
2023-05-23T00:57:02.991Z,1.30
2023-05-23T00:59:33.867Z,0.98
2023-05-23T01:02:06.091Z,1.05
2023-05-23T01:04:36.205Z,1.02
2023-05-23T01:07:05.815Z,1.00
2023-05-23T01:09:35.441Z,1.13
2023-05-23T01:12:19.949Z,1.15
2023-05-23T01:14:54.429Z,1.17
2023-05-23T01:17:32.072Z,1.15
2023-05-23T01:20:05.521Z,1.33
2023-05-23T01:23:32.571Z,1.08
2023-05-23T01:26:15.128Z,1.33
2023-05-23T01:28:50.489Z,1.02
2023-05-23T01:31:21.167Z,0.95
2023-05-23T01:33:53.535Z,1.15
2023-05-23T01:36:23.842Z,1.40
2023-05-23T01:38:53.241Z,1.35
2023-05-23T01:41:22.657Z,1.40
2023-05-23T01:43:54.669Z,1.38
2023-05-23T01:46:25.199Z,1.33
2023-05-23T01:48:56.397Z,1.20
2023-05-23T01:51:27.500Z,1.15
2023-05-23T01:53:57.159Z,1.40
2023-05-23T01:56:30.848Z,1.48
2023-05-23T01:59:03.021Z,1.65
2023-05-23T02:01:32.752Z,1.50
2023-05-23T02:04:02.192Z,1.30
2023-05-23T02:06:31.969Z,1.42
2023-05-23T02:09:03.373Z,1.25
2023-05-23T02:11:32.987Z,1.38
2023-05-23T02:14:07.866Z,1.55
2023-05-23T02:16:38.219Z,1.55
2023-05-23T02:19:07.814Z,2.08
2023-05-23T02:21:40.044Z,1.92
2023-05-23T02:24:11.470Z,2.25
2023-05-23T02:26:41.864Z,2.10
2023-05-23T02:29:16.741Z,2.03
2023-05-23T02:31:46.209Z,2.30
2023-05-23T02:34:15.864Z,2.30
2023-05-23T02:36:45.238Z,2.40
2023-05-23T02:39:14.931Z,2.15
2023-05-23T02:41:46.554Z,2.33
2023-05-23T02:44:19.728Z,2.42
2023-05-23T02:46:49.712Z,2.38
2023-05-23T02:49:19.212Z,2.33
2023-05-23T02:51:48.605Z,2.75
2023-05-23T02:54:17.991Z,2.60
2023-05-23T02:56:47.959Z,2.53
2023-05-23T02:59:19.922Z,2.35
2023-05-23T03:01:49.291Z,2.38
2023-05-23T03:04:18.815Z,2.15
2023-05-23T03:06:48.254Z,2.47
2023-05-23T03:09:19.568Z,2.80
2023-05-23T03:11:49.199Z,2.35
2023-05-23T03:14:21.268Z,2.55
2023-05-23T03:16:50.950Z,2.13
2023-05-23T03:19:20.448Z,2.65
2023-05-23T03:21:51.090Z,2.75
2023-05-23T03:24:21.027Z,2.05
2023-05-23T03:26:50.441Z,1.88
2023-05-23T03:29:22.516Z,2.78
2023-05-23T03:31:51.959Z,2.97
2023-05-23T03:34:21.384Z,2.88
2023-05-23T03:36:51.171Z,2.30
2023-05-23T03:39:20.622Z,2.90
2023-05-23T03:41:50.007Z,2.65
2023-05-23T03:44:22.143Z,2.85
2023-05-23T03:46:51.631Z,2.83
2023-05-23T03:49:21.059Z,2.72
2023-05-23T03:51:50.464Z,2.75
2023-05-23T03:54:20.316Z,2.55
2023-05-23T03:56:49.734Z,2.92
2023-05-23T03:59:21.719Z,2.80
2023-05-23T04:01:51.229Z,2.90
2023-05-23T04:04:21.257Z,1.92
2023-05-23T04:06:50.764Z,2.38
2023-05-23T04:09:20.204Z,2.70
2023-05-23T04:11:50.205Z,2.00
2023-05-23T04:14:22.884Z,2.35
2023-05-23T04:16:52.705Z,2.10
2023-05-23T04:19:22.520Z,2.17
2023-05-23T04:21:51.964Z,2.00
2023-05-23T04:24:21.305Z,1.83
2023-05-23T04:26:50.698Z,2.10
2023-05-23T04:29:22.801Z,2.53
2023-05-23T04:31:52.198Z,1.95
2023-05-23T04:34:22.547Z,1.92
2023-05-23T04:36:54.073Z,1.92
2023-05-23T04:39:23.629Z,1.73
2023-05-23T04:41:54.554Z,1.90
2023-05-23T04:44:26.890Z,1.90
2023-05-23T04:46:56.752Z,1.63
2023-05-23T04:49:27.040Z,2.40
2023-05-23T04:51:56.536Z,2.00
2023-05-23T04:54:26.123Z,1.73
2023-05-23T04:56:55.715Z,1.35
2023-05-23T04:59:27.702Z,1.55
2023-05-23T05:01:57.083Z,1.90
2023-05-23T05:04:26.517Z,1.85
2023-05-23T05:06:56.148Z,1.88
2023-05-23T05:09:26.076Z,1.40
2023-05-23T05:11:55.505Z,1.38
2023-05-23T05:14:29.194Z,1.90
2023-05-23T05:16:58.744Z,2.20
2023-05-23T05:19:29.035Z,1.45
2023-05-23T05:22:00.582Z,1.25
2023-05-23T05:24:30.560Z,1.70
2023-05-23T05:27:00.040Z,1.35
2023-05-23T05:29:33.876Z,1.70
2023-05-23T05:32:04.044Z,1.13
2023-05-23T05:34:33.590Z,1.48
2023-05-23T05:37:02.964Z,1.50
2023-05-23T05:39:32.388Z,1.60
2023-05-23T05:42:03.830Z,1.60
2023-05-23T05:44:35.903Z,1.50
2023-05-23T05:47:05.254Z,1.55
2023-05-23T05:49:34.646Z,1.85
2023-05-23T05:52:04.076Z,1.35
2023-05-23T05:54:33.480Z,1.63
2023-05-23T05:57:04.198Z,1.58
2023-05-23T05:59:36.262Z,1.63
2023-05-23T06:02:05.661Z,1.50
2023-05-23T06:04:35.317Z,1.40
2023-05-23T06:07:04.719Z,1.55
2023-05-23T06:09:34.123Z,1.90
2023-05-23T06:12:03.541Z,1.55
2023-05-23T06:14:32.933Z,2.00
2023-05-23T06:17:06.121Z,1.55
2023-05-23T06:19:35.540Z,1.55
2023-05-23T06:22:04.872Z,1.27
2023-05-23T06:24:34.248Z,1.67
2023-05-23T06:27:03.636Z,1.60
2023-05-23T06:29:33.399Z,1.48
2023-05-23T06:32:05.715Z,1.92
2023-05-23T06:34:35.448Z,1.80
2023-05-23T06:37:04.817Z,1.92
2023-05-23T06:39:34.351Z,1.85
2023-05-23T06:42:04.511Z,1.70
2023-05-23T06:44:33.863Z,1.77
2023-05-23T06:47:05.856Z,1.73
2023-05-23T06:49:35.208Z,1.60
2023-05-23T06:52:04.575Z,2.10
2023-05-23T06:54:34.065Z,1.58
2023-05-23T06:57:03.450Z,1.73
2023-05-23T06:59:32.787Z,1.92
2023-05-23T07:02:04.762Z,2.15
2023-05-23T07:04:34.128Z,2.08
2023-05-23T07:07:03.540Z,2.45
2023-05-23T07:09:32.971Z,2.22
2023-05-23T07:12:02.354Z,1.83
2023-05-23T07:14:31.761Z,1.92
2023-05-23T07:17:01.207Z,2.05
2023-05-23T07:19:33.259Z,1.52
2023-05-23T07:22:03.867Z,1.75
2023-05-23T07:24:33.214Z,1.95
2023-05-23T07:27:02.618Z,1.52
2023-05-23T07:29:32.375Z,2.20
2023-05-23T07:32:01.854Z,2.30
2023-05-23T07:34:33.844Z,1.85
2023-05-23T07:37:03.231Z,1.88
2023-05-23T07:39:32.647Z,1.65
2023-05-23T07:42:04.387Z,2.03
2023-05-23T07:44:33.799Z,2.30
2023-05-23T07:47:04.887Z,1.83
2023-05-23T07:49:36.993Z,2.00
2023-05-23T07:52:07.326Z,1.67
2023-05-23T07:54:36.754Z,2.13
2023-05-23T07:57:07.489Z,0.93
2023-05-23T07:59:36.864Z,1.27
2023-05-23T08:02:06.546Z,1.30
2023-05-23T08:04:40.625Z,1.60
2023-05-23T08:07:11.662Z,1.70
2023-05-23T08:09:41.305Z,1.52
2023-05-23T08:12:10.988Z,1.70
2023-05-23T08:14:50.656Z,1.27
2023-05-23T08:17:21.916Z,1.30
2023-05-23T08:19:53.898Z,1.25
2023-05-23T08:22:23.285Z,1.25
2023-05-23T08:24:52.648Z,1.23
2023-05-23T08:27:22.008Z,1.77
2023-05-23T08:29:51.551Z,1.25
2023-05-23T08:32:20.937Z,1.27
2023-05-23T08:34:50.344Z,1.48
2023-05-23T08:37:22.369Z,1.55
2023-05-23T08:39:52.308Z,1.08
2023-05-23T08:42:21.761Z,1.40
2023-05-23T08:44:51.678Z,1.00
2023-05-23T08:47:23.269Z,0.90
2023-05-23T08:49:55.397Z,0.88
2023-05-23T08:52:30.401Z,1.10
2023-05-23T08:55:00.460Z,1.08
2023-05-23T08:57:30.889Z,0.77
2023-05-23T09:00:01.833Z,1.17
2023-05-23T09:02:32.606Z,1.00
2023-05-23T09:05:02.023Z,1.00
2023-05-23T09:07:34.056Z,0.90
2023-05-23T09:10:03.507Z,0.90
2023-05-23T09:12:34.178Z,0.90
2023-05-23T09:15:03.559Z,1.02
2023-05-23T09:17:34.243Z,0.85
2023-05-23T09:20:04.888Z,0.88
2023-05-23T09:22:36.811Z,0.82
2023-05-23T09:25:06.514Z,0.70
2023-05-23T09:27:36.209Z,0.90
2023-05-23T09:30:10.295Z,0.80
2023-05-23T09:32:40.284Z,0.70
2023-05-23T09:35:12.473Z,0.50
2023-05-23T09:37:48.074Z,0.77
2023-05-23T09:40:18.320Z,0.82
2023-05-23T09:42:49.235Z,0.68
2023-05-23T09:45:19.629Z,0.57
2023-05-23T09:47:53.543Z,0.77
2023-05-23T09:50:23.844Z,0.60
2023-05-23T09:52:55.909Z,0.80
2023-05-23T09:55:25.381Z,0.45
2023-05-23T09:57:57.379Z,0.70
2023-05-23T10:00:28.752Z,0.65
2023-05-23T10:03:04.549Z,0.68
2023-05-23T10:05:37.516Z,0.68
2023-05-23T10:08:12.556Z,0.45
2023-05-23T10:11:39.854Z,0.50
2023-05-23T10:14:12.008Z,0.52
2023-05-23T10:16:50.289Z,0.80
2023-05-23T10:19:26.574Z,0.98
2023-05-23T10:22:02.915Z,0.70
2023-05-23T10:24:36.518Z,0.65
2023-05-23T10:27:06.543Z,0.52
2023-05-23T10:29:36.693Z,0.70
2023-05-23T10:32:08.870Z,1.15
2023-05-23T10:34:43.244Z,0.93
2023-05-23T10:37:18.249Z,0.90
2023-05-23T10:40:00.315Z,0.90
2023-05-23T10:42:38.969Z,1.05
2023-05-23T10:45:18.733Z,1.15
2023-05-23T10:47:49.762Z,1.48
2023-05-23T10:50:33.576Z,1.10
2023-05-23T10:53:04.386Z,1.00
2023-05-23T10:55:39.907Z,0.88
2023-05-23T10:58:14.253Z,0.93
2023-05-23T11:00:53.506Z,0.47
2023-05-23T11:03:35.462Z,0.73
2023-05-23T11:06:06.642Z,0.40
2023-05-23T11:08:48.970Z,0.95
2023-05-23T11:11:22.083Z,0.47
2023-05-23T11:14:00.862Z,0.60
2023-05-23T11:16:31.915Z,1.40
2023-05-23T11:19:28.634Z,1.17
2023-05-23T11:22:01.348Z,0.65
2023-05-23T11:24:53.045Z,0.68
2023-05-23T11:27:34.764Z,0.70
2023-05-23T11:30:07.213Z,0.80
2023-05-23T11:32:37.271Z,0.50
2023-05-23T11:35:08.887Z,0.75
2023-05-23T11:37:40.643Z,0.60
2023-05-23T11:40:28.902Z,0.40
2023-05-23T11:43:01.745Z,0.63
2023-05-23T11:45:32.370Z,0.40
2023-05-23T11:48:01.889Z,0.50
2023-05-23T11:50:31.340Z,0.47
2023-05-23T11:53:00.799Z,0.70
2023-05-23T11:55:30.308Z,0.47
2023-05-23T11:58:03.386Z,0.90
2023-05-23T12:00:32.979Z,0.70
2023-05-23T12:03:09.891Z,0.80
2023-05-23T12:05:39.277Z,0.70
2023-05-23T12:08:08.960Z,0.40
2023-05-23T12:10:38.410Z,0.65
2023-05-23T12:13:10.450Z,0.30
2023-05-23T12:15:42.091Z,0.63
2023-05-23T12:18:11.715Z,0.50
2023-05-23T12:20:41.614Z,0.60
2023-05-23T12:23:11.472Z,0.52
2023-05-23T12:25:43.030Z,0.55
2023-05-23T12:28:16.197Z,0.60
2023-05-23T12:30:46.260Z,0.80
2023-05-23T12:33:16.190Z,0.43
2023-05-23T12:35:48.535Z,0.55
2023-05-23T12:38:19.960Z,0.52
2023-05-23T12:40:49.364Z,0.63
2023-05-23T12:43:21.296Z,0.85
2023-05-23T12:45:50.702Z,0.50
2023-05-23T12:48:20.145Z,0.55
2023-05-23T12:50:49.540Z,0.45
2023-05-23T12:53:19.031Z,0.60
2023-05-23T12:55:48.373Z,0.35
2023-05-23T12:58:22.048Z,1.00
2023-05-23T13:00:51.422Z,0.43
2023-05-23T13:03:21.505Z,0.90
2023-05-23T13:05:51.135Z,0.60
2023-05-23T13:08:21.387Z,0.65
2023-05-23T13:10:50.811Z,0.82
2023-05-23T13:13:22.917Z,0.40
2023-05-23T13:15:52.775Z,0.75
2023-05-23T13:18:22.266Z,0.70
2023-05-23T13:20:51.759Z,0.57
2023-05-23T13:23:21.357Z,0.85
2023-05-23T13:25:51.387Z,0.75
2023-05-23T13:28:23.384Z,0.93
2023-05-23T13:30:53.131Z,0.60
2023-05-23T13:33:23.204Z,0.43
2023-05-23T13:35:54.396Z,0.40
2023-05-23T13:38:26.674Z,0.40
2023-05-23T13:40:57.120Z,0.50
2023-05-23T13:43:29.096Z,0.45
2023-05-23T13:45:58.530Z,0.65
2023-05-23T13:48:27.992Z,0.57
2023-05-23T13:50:58.383Z,0.43
2023-05-23T13:53:28.400Z,0.30
2023-05-23T13:55:57.905Z,0.50
2023-05-23T13:58:32.579Z,0.45
2023-05-23T14:01:02.790Z,0.85
2023-05-23T14:03:32.193Z,0.90
2023-05-23T14:06:01.564Z,0.90
2023-05-23T14:08:30.914Z,0.70
2023-05-23T14:11:00.305Z,0.40
2023-05-23T14:13:32.968Z,0.43
2023-05-23T14:16:02.495Z,0.43
2023-05-23T14:18:31.940Z,0.60
2023-05-23T14:21:01.280Z,0.80
2023-05-23T14:23:30.965Z,0.50
2023-05-23T14:26:00.309Z,0.50
2023-05-23T14:28:32.304Z,0.75
2023-05-23T14:31:01.784Z,0.35
2023-05-23T14:33:31.131Z,0.60
2023-05-23T14:36:01.025Z,0.47
2023-05-23T14:38:30.381Z,0.77
2023-05-23T14:41:00.140Z,0.30
2023-05-23T14:43:32.175Z,0.30
2023-05-23T14:46:02.060Z,0.45
2023-05-23T14:48:31.562Z,0.30
2023-05-23T14:51:01.993Z,0.20
2023-05-23T14:53:31.638Z,0.50
2023-05-23T14:56:01.107Z,0.40
2023-05-23T14:58:33.056Z,0.38
2023-05-23T15:01:02.582Z,0.52
2023-05-23T15:03:32.447Z,0.30
2023-05-23T15:06:03.362Z,0.50
2023-05-23T15:08:33.808Z,0.60
2023-05-23T15:11:03.901Z,0.43
2023-05-23T15:13:35.840Z,0.60
2023-05-23T15:16:05.844Z,0.43
2023-05-23T15:18:41.346Z,0.25
2023-05-23T15:21:12.450Z,0.47
2023-05-23T15:23:41.974Z,0.25
2023-05-23T15:26:11.627Z,0.40
2023-05-23T15:28:43.552Z,0.40
2023-05-23T15:31:12.929Z,0.30
2023-05-23T15:33:42.315Z,0.30
2023-05-23T15:36:13.342Z,0.25
2023-05-23T15:38:43.881Z,0.20
2023-05-23T15:41:13.594Z,0.40
2023-05-23T15:43:47.470Z,0.77
2023-05-23T15:46:17.130Z,0.28
2023-05-23T15:48:46.530Z,0.28
2023-05-23T15:51:16.556Z,0.40
2023-05-23T15:54:00.045Z,0.30
2023-05-23T15:56:30.465Z,0.60
2023-05-23T15:59:05.395Z,1.00
2023-05-23T16:01:35.282Z,0.30
2023-05-23T16:04:04.736Z,0.65
2023-05-23T16:06:34.101Z,0.10
2023-05-23T16:09:03.486Z,0.13
2023-05-23T16:11:32.883Z,0.25
2023-05-23T16:14:04.822Z,0.30
2023-05-23T16:16:34.212Z,0.45
2023-05-23T16:19:03.717Z,0.32
2023-05-23T16:21:33.464Z,0.47
2023-05-23T16:24:02.901Z,0.22
2023-05-23T16:26:32.582Z,0.20
2023-05-23T16:29:02.021Z,0.40
2023-05-23T16:31:34.018Z,0.13
2023-05-23T16:34:03.463Z,0.25
2023-05-23T16:36:32.835Z,0.40
2023-05-23T16:39:03.304Z,0.20
2023-05-23T16:41:32.663Z,0.15
2023-05-23T16:44:03.390Z,0.22
2023-05-23T16:46:35.522Z,0.30
2023-05-23T16:49:04.930Z,0.70
2023-05-23T16:51:34.724Z,0.40
2023-05-23T16:54:04.134Z,0.35
2023-05-23T16:56:33.902Z,0.25
2023-05-23T16:59:03.263Z,0.38
2023-05-23T17:01:35.718Z,0.10
2023-05-23T17:04:06.852Z,0.68
2023-05-23T17:06:37.283Z,0.15
2023-05-23T17:09:06.760Z,0.30
2023-05-23T17:11:36.104Z,0.43
2023-05-23T17:14:05.499Z,0.93
2023-05-23T17:16:37.647Z,0.30
2023-05-23T17:19:08.117Z,0.40
2023-05-23T17:21:37.795Z,0.30
2023-05-23T17:24:07.384Z,0.15
2023-05-23T17:26:36.988Z,0.63
2023-05-23T17:29:06.776Z,0.80
2023-05-23T17:31:38.817Z,0.82
2023-05-23T17:34:08.256Z,0.30
2023-05-23T17:36:37.636Z,0.20
2023-05-23T17:39:07.252Z,0.20
2023-05-23T17:41:36.637Z,0.40
2023-05-23T17:44:06.389Z,0.40
2023-05-23T17:46:38.524Z,0.17
2023-05-23T17:49:07.924Z,0.20
2023-05-23T17:51:37.299Z,0.10
2023-05-23T17:54:07.257Z,0.32
2023-05-23T17:56:37.408Z,0.10
2023-05-23T17:59:07.792Z,0.20
2023-05-23T18:01:39.816Z,0.20
2023-05-23T18:04:09.383Z,0.32
2023-05-23T18:06:39.041Z,0.38
2023-05-23T18:09:09.849Z,0.20
2023-05-23T18:11:39.464Z,0.38
2023-05-23T18:14:08.816Z,0.13
2023-05-23T18:16:40.891Z,0.13
2023-05-23T18:19:10.359Z,0.70
2023-05-23T18:21:39.795Z,0.25
2023-05-23T18:24:11.988Z,0.20
2023-05-23T18:26:43.365Z,0.30
2023-05-23T18:29:12.951Z,0.10
2023-05-23T18:31:45.702Z,0.60
2023-05-23T18:34:15.043Z,0.52
2023-05-23T18:36:44.506Z,0.30
2023-05-23T18:39:14.083Z,0.73
2023-05-23T18:41:43.561Z,0.30
2023-05-23T18:44:13.580Z,0.57
2023-05-23T18:46:46.044Z,0.47
2023-05-23T18:49:15.715Z,0.20
2023-05-23T18:51:45.743Z,0.30
2023-05-23T18:54:15.090Z,0.30
2023-05-23T18:56:44.450Z,0.10
2023-05-23T18:59:16.000Z,0.20
2023-05-23T19:01:48.001Z,0.40
2023-05-23T19:04:17.525Z,0.20
2023-05-23T19:06:47.975Z,0.13
2023-05-23T19:09:17.511Z,0.30
2023-05-23T19:11:46.953Z,0.30
2023-05-23T19:14:17.775Z,0.93
2023-05-23T19:16:49.865Z,0.28
2023-05-23T19:19:20.200Z,0.38
2023-05-23T19:21:49.766Z,0.85
2023-05-23T19:24:19.196Z,0.55
2023-05-23T19:26:48.564Z,0.38
2023-05-23T19:29:18.138Z,0.40
2023-05-23T19:31:50.530Z,0.15
2023-05-23T19:34:19.941Z,0.13
2023-05-23T19:36:49.860Z,0.40
2023-05-23T19:39:19.234Z,0.10
2023-05-23T19:41:48.698Z,0.00
2023-05-23T19:44:18.187Z,0.10
2023-05-23T19:46:50.169Z,0.40
2023-05-23T19:49:22.642Z,0.40
2023-05-23T19:51:54.079Z,0.15
2023-05-23T19:54:24.626Z,0.10
2023-05-23T19:56:54.003Z,0.08
2023-05-23T19:59:23.363Z,0.20
2023-05-23T20:01:55.439Z,0.35
2023-05-23T20:04:25.392Z,0.28
2023-05-23T20:06:56.087Z,0.20
2023-05-23T20:09:25.640Z,0.50
2023-05-23T20:11:55.009Z,0.70
2023-05-23T20:14:24.787Z,0.25
2023-05-23T20:16:56.779Z,1.08
2023-05-23T20:19:26.325Z,0.40
2023-05-23T20:21:56.809Z,1.08
2023-05-23T20:24:27.020Z,0.03
2023-05-23T20:26:56.414Z,0.60
2023-05-23T20:29:25.938Z,0.10
2023-05-23T20:31:57.890Z,0.15
2023-05-23T20:34:27.451Z,0.15
2023-05-23T20:36:57.603Z,0.25
2023-05-23T20:39:27.255Z,0.17
2023-05-23T20:41:56.660Z,0.40
2023-05-23T20:44:27.010Z,0.20
2023-05-23T20:46:59.304Z,0.20
2023-05-23T20:49:28.807Z,0.10
2023-05-23T20:51:58.333Z,0.60
2023-05-23T20:54:29.241Z,0.20
2023-05-23T20:56:59.118Z,0.43
2023-05-23T20:59:30.547Z,0.80
2023-05-23T21:02:02.540Z,0.13
2023-05-23T21:04:31.962Z,0.40
2023-05-23T21:07:01.524Z,0.60
2023-05-23T21:09:32.866Z,0.20
2023-05-23T21:12:02.209Z,0.57
2023-05-23T21:14:31.545Z,0.30
2023-05-23T21:17:03.595Z,0.25
2023-05-23T21:19:33.108Z,0.50
2023-05-23T21:22:02.572Z,0.15
2023-05-23T21:24:32.090Z,0.40
2023-05-23T21:27:01.829Z,0.43
2023-05-23T21:29:31.274Z,0.28
2023-05-23T21:32:03.291Z,0.38
2023-05-23T21:34:32.642Z,0.90
2023-05-23T21:37:02.019Z,0.22
2023-05-23T21:39:47.085Z,0.20
2023-05-23T21:42:20.487Z,0.50
2023-05-23T21:44:49.881Z,0.10
2023-05-23T21:47:25.880Z,0.45
2023-05-23T21:49:55.421Z,0.20
2023-05-23T21:52:26.458Z,0.60
2023-05-23T21:54:55.895Z,0.10
2023-05-23T21:57:25.419Z,0.30
2023-05-23T21:59:54.839Z,0.63
2023-05-23T22:02:27.071Z,0.50
2023-05-23T22:04:58.529Z,0.43
2023-05-23T22:07:28.136Z,0.52
2023-05-23T22:09:57.876Z,0.38
2023-05-23T22:12:29.085Z,0.98
2023-05-23T22:14:58.645Z,0.30
2023-05-23T22:17:34.237Z,0.40
2023-05-23T22:20:05.457Z,0.32
2023-05-23T22:22:35.778Z,0.20
2023-05-23T22:25:05.579Z,0.50
2023-05-23T22:27:35.177Z,0.43
2023-05-23T22:30:05.742Z,1.00
2023-05-23T22:32:38.520Z,0.30
2023-05-23T22:35:09.172Z,0.43
2023-05-23T22:37:38.729Z,0.40
2023-05-23T22:40:11.750Z,0.45
2023-05-23T22:42:41.331Z,0.35
2023-05-23T22:45:12.303Z,0.30
2023-05-23T22:47:48.529Z,0.77
2023-05-23T22:50:18.384Z,0.20
2023-05-23T22:52:48.605Z,0.50
2023-05-23T22:55:18.006Z,0.57
2023-05-23T22:57:47.578Z,0.22
2023-05-23T23:00:17.518Z,0.20
2023-05-23T23:02:49.575Z,0.65
2023-05-23T23:05:19.499Z,0.10
2023-05-23T23:07:49.038Z,0.70
2023-05-23T23:10:18.537Z,0.60
2023-05-23T23:12:47.948Z,0.10
2023-05-23T23:15:17.402Z,0.10
2023-05-23T23:17:49.502Z,0.10
2023-05-23T23:20:19.592Z,0.38
2023-05-23T23:22:49.149Z,0.28
2023-05-23T23:25:19.058Z,0.40
2023-05-23T23:27:48.539Z,0.57
2023-05-23T23:30:18.254Z,0.30
2023-05-23T23:32:50.273Z,0.55
2023-05-23T23:35:19.726Z,0.10
2023-05-23T23:37:49.095Z,1.02
2023-05-23T23:40:18.587Z,0.60
2023-05-23T23:42:48.005Z,0.80
2023-05-23T23:45:17.421Z,1.00
2023-05-23T23:47:46.867Z,0.98
2023-05-23T23:50:18.941Z,0.70
2023-05-23T23:52:48.420Z,0.40
2023-05-23T23:55:17.913Z,0.22
2023-05-23T23:57:47.605Z,0.22
